createdAt,value
2018-09-29T00:01:00.638Z,10.90
2018-09-29T00:03:29.967Z,10.80
2018-09-29T00:05:59.225Z,10.80
2018-09-29T00:08:28.488Z,10.80
2018-09-29T00:10:57.774Z,10.80
2018-09-29T00:13:27.054Z,10.70
2018-09-29T00:15:56.313Z,10.70
2018-09-29T00:18:25.612Z,10.50
2018-09-29T00:20:54.896Z,10.40
2018-09-29T00:23:24.171Z,10.30
2018-09-29T00:25:53.472Z,10.40
2018-09-29T00:28:22.764Z,10.30
2018-09-29T00:30:52.045Z,10.20
2018-09-29T00:33:21.305Z,10.00
2018-09-29T00:35:50.641Z,9.90
2018-09-29T00:38:19.895Z,9.80
2018-09-29T00:40:49.201Z,9.40
2018-09-29T00:43:18.486Z,9.60
2018-09-29T00:45:47.746Z,9.60
2018-09-29T00:48:16.987Z,9.40
2018-09-29T00:50:46.248Z,9.30
2018-09-29T00:53:15.468Z,9.40
2018-09-29T00:55:44.748Z,9.40
2018-09-29T00:58:14.010Z,9.30
2018-09-29T01:00:43.276Z,9.20
2018-09-29T01:03:12.514Z,9.20
2018-09-29T01:05:41.822Z,9.10
2018-09-29T01:08:11.073Z,8.80
2018-09-29T01:10:40.349Z,8.90
2018-09-29T01:13:09.612Z,8.90
2018-09-29T01:15:38.966Z,9.00
2018-09-29T01:18:08.562Z,9.00
2018-09-29T01:20:37.824Z,8.90
2018-09-29T01:23:07.075Z,8.90
2018-09-29T01:25:36.352Z,8.90
2018-09-29T01:28:05.588Z,8.80
2018-09-29T01:30:34.873Z,8.20
2018-09-29T01:33:04.085Z,8.30
2018-09-29T01:35:33.399Z,8.30
2018-09-29T01:38:02.657Z,8.40
2018-09-29T01:40:31.919Z,8.30
2018-09-29T01:43:01.192Z,8.40
2018-09-29T01:45:30.471Z,8.40
2018-09-29T01:47:59.731Z,8.50
2018-09-29T01:50:29.105Z,8.50
2018-09-29T01:52:58.391Z,8.40
2018-09-29T01:55:27.643Z,8.20
2018-09-29T01:57:56.999Z,8.30
2018-09-29T02:00:26.254Z,8.20
2018-09-29T02:02:55.617Z,8.30
2018-09-29T02:05:24.926Z,8.30
2018-09-29T02:07:54.287Z,8.10
2018-09-29T02:10:23.566Z,8.20
2018-09-29T02:12:52.866Z,8.20
2018-09-29T02:15:22.147Z,8.20
2018-09-29T02:17:51.430Z,8.00
2018-09-29T02:20:20.698Z,8.10
2018-09-29T02:22:49.994Z,8.00
2018-09-29T02:25:19.402Z,7.70
2018-09-29T02:27:48.684Z,7.70
2018-09-29T02:30:17.955Z,7.80
2018-09-29T02:32:47.301Z,7.80
2018-09-29T02:35:16.563Z,7.80
2018-09-29T02:37:45.837Z,7.80
2018-09-29T02:40:15.121Z,8.00
2018-09-29T02:42:44.425Z,7.90
2018-09-29T02:45:13.675Z,7.80
2018-09-29T02:47:42.969Z,7.80
2018-09-29T02:50:12.221Z,7.80
2018-09-29T02:52:41.510Z,7.90
2018-09-29T02:55:11.807Z,7.90
2018-09-29T02:57:41.108Z,7.90
2018-09-29T03:00:10.347Z,7.80
2018-09-29T03:02:39.645Z,7.80
2018-09-29T03:05:08.911Z,7.80
2018-09-29T03:07:38.169Z,7.70
2018-09-29T03:10:07.415Z,7.80
2018-09-29T03:12:36.675Z,7.60
2018-09-29T03:15:06.006Z,7.60
2018-09-29T03:17:35.333Z,7.60
2018-09-29T03:20:04.595Z,7.60
2018-09-29T03:22:33.855Z,7.60
2018-09-29T03:25:03.121Z,7.60
2018-09-29T03:27:32.364Z,7.50
2018-09-29T03:30:01.643Z,7.60
2018-09-29T03:32:30.893Z,7.60
2018-09-29T03:35:00.168Z,7.50
2018-09-29T03:37:29.429Z,7.50
2018-09-29T03:39:58.684Z,7.50
2018-09-29T03:42:28.302Z,7.20
2018-09-29T03:44:57.626Z,7.30
2018-09-29T03:47:26.929Z,7.30
2018-09-29T03:49:56.197Z,7.40
2018-09-29T03:52:25.476Z,7.40
2018-09-29T03:54:54.802Z,7.30
2018-09-29T03:57:24.132Z,7.30
2018-09-29T03:59:53.466Z,7.30
2018-09-29T04:02:22.785Z,7.30
2018-09-29T04:04:52.113Z,7.40
2018-09-29T04:07:21.378Z,7.30
2018-09-29T04:09:50.714Z,7.20
2018-09-29T04:12:20.006Z,7.20
2018-09-29T04:14:49.298Z,7.30
2018-09-29T04:17:18.591Z,7.30
2018-09-29T04:19:47.877Z,7.20
2018-09-29T04:22:17.236Z,7.10
2018-09-29T04:24:46.519Z,7.10
2018-09-29T04:27:15.958Z,7.10
2018-09-29T04:29:45.269Z,7.10
2018-09-29T04:32:14.599Z,7.10
2018-09-29T04:34:43.920Z,7.10
2018-09-29T04:37:13.215Z,7.00
2018-09-29T04:39:42.530Z,7.00
2018-09-29T04:42:11.808Z,7.00
2018-09-29T04:44:41.048Z,7.10
2018-09-29T04:47:10.373Z,7.00
2018-09-29T04:49:39.623Z,7.00
2018-09-29T04:52:08.958Z,7.00
2018-09-29T04:54:38.205Z,6.90
2018-09-29T04:57:07.526Z,6.90
2018-09-29T04:59:36.802Z,6.90
2018-09-29T05:02:06.178Z,6.80
2018-09-29T05:04:35.516Z,6.80
2018-09-29T05:07:04.826Z,6.80
2018-09-29T05:09:34.142Z,6.80
2018-09-29T05:12:03.505Z,6.80
2018-09-29T05:14:32.780Z,6.80
2018-09-29T05:17:02.311Z,6.70
2018-09-29T05:19:31.650Z,6.70
2018-09-29T05:22:01.006Z,6.60
2018-09-29T05:24:30.294Z,6.50
2018-09-29T05:26:59.681Z,6.20
2018-09-29T05:29:29.015Z,6.30
2018-09-29T05:31:58.333Z,6.30
2018-09-29T05:34:27.635Z,6.20
2018-09-29T05:36:56.947Z,6.30
2018-09-29T05:39:26.505Z,6.50
2018-09-29T05:41:55.852Z,6.60
2018-09-29T05:44:25.131Z,6.50
2018-09-29T05:46:54.456Z,6.60
2018-09-29T05:49:23.758Z,6.60
2018-09-29T05:51:53.080Z,6.70
2018-09-29T05:54:22.453Z,6.60
2018-09-29T05:56:51.729Z,6.80
2018-09-29T05:59:21.033Z,6.90
2018-09-29T06:01:50.372Z,7.10
2018-09-29T06:04:19.743Z,7.20
2018-09-29T06:06:49.047Z,7.40
2018-09-29T06:09:18.337Z,7.60
2018-09-29T06:11:47.633Z,7.60
2018-09-29T06:14:16.934Z,7.90
2018-09-29T06:16:46.290Z,8.00
2018-09-29T06:19:15.613Z,8.30
2018-09-29T06:21:44.910Z,8.50
2018-09-29T06:24:14.225Z,8.60
2018-09-29T06:26:43.543Z,8.90
2018-09-29T06:29:12.866Z,9.00
2018-09-29T06:31:42.162Z,9.10
2018-09-29T06:34:11.517Z,9.20
2018-09-29T06:36:40.840Z,9.20
2018-09-29T06:39:11.539Z,9.20
2018-09-29T06:41:40.860Z,8.90
2018-09-29T06:44:10.211Z,8.70
2018-09-29T06:46:39.490Z,8.70
2018-09-29T06:49:08.776Z,8.70
2018-09-29T06:51:38.082Z,8.70
2018-09-29T06:54:07.430Z,8.80
2018-09-29T06:56:36.746Z,9.10
2018-09-29T06:59:06.039Z,9.30
2018-09-29T07:01:35.309Z,9.50
2018-09-29T07:04:04.635Z,10.10
2018-09-29T07:06:33.885Z,10.90
2018-09-29T07:09:03.253Z,11.00
2018-09-29T07:11:32.550Z,11.40
2018-09-29T07:14:01.827Z,12.10
2018-09-29T07:16:31.106Z,13.50
2018-09-29T07:19:00.383Z,14.00
2018-09-29T07:21:29.825Z,14.90
2018-09-29T07:23:59.169Z,15.80
2018-09-29T07:26:28.519Z,16.80
2018-09-29T07:28:57.830Z,17.80
2018-09-29T07:31:27.238Z,18.70
2018-09-29T07:33:56.474Z,19.00
2018-09-29T07:36:25.793Z,18.70
2018-09-29T07:38:55.053Z,19.30
2018-09-29T07:41:24.384Z,20.10
2018-09-29T07:43:53.710Z,19.50
2018-09-29T07:46:23.073Z,19.30
2018-09-29T07:48:52.414Z,19.30
2018-09-29T07:51:21.785Z,19.30
2018-09-29T07:53:51.097Z,19.70
2018-09-29T07:56:20.534Z,18.30
2018-09-29T07:58:49.933Z,18.50
2018-09-29T08:01:19.297Z,19.50
2018-09-29T08:03:48.643Z,19.90
2018-09-29T08:06:18.109Z,20.30
2018-09-29T08:08:47.419Z,20.60
2018-09-29T08:11:16.787Z,20.50
2018-09-29T08:13:46.080Z,20.60
2018-09-29T08:16:15.421Z,20.50
2018-09-29T08:18:44.773Z,21.00
2018-09-29T08:21:14.152Z,20.70
2018-09-29T08:23:43.416Z,21.20
2018-09-29T08:26:12.825Z,21.00
2018-09-29T08:28:42.073Z,21.10
2018-09-29T08:31:11.354Z,20.70
2018-09-29T08:33:40.655Z,20.40
2018-09-29T08:36:09.950Z,21.50
2018-09-29T08:38:39.246Z,23.10
2018-09-29T08:41:09.433Z,22.80
2018-09-29T08:43:38.751Z,22.40
2018-09-29T08:46:08.130Z,23.10
2018-09-29T08:48:37.454Z,23.20
2018-09-29T08:51:07.180Z,24.00
2018-09-29T08:53:36.987Z,22.70
2018-09-29T08:56:06.322Z,21.70
2018-09-29T08:58:35.617Z,23.00
2018-09-29T09:01:04.913Z,24.00
2018-09-29T09:03:34.958Z,24.30
2018-09-29T09:06:04.235Z,24.20
2018-09-29T09:08:33.518Z,24.60
2018-09-29T09:11:02.801Z,25.50
2018-09-29T09:13:32.154Z,25.80
2018-09-29T09:16:01.500Z,25.20
2018-09-29T09:18:30.881Z,24.80
2018-09-29T09:21:00.176Z,25.10
2018-09-29T09:23:29.521Z,24.10
2018-09-29T09:25:58.790Z,24.20
2018-09-29T09:28:28.072Z,24.40
2018-09-29T09:30:57.359Z,25.50
2018-09-29T09:33:26.670Z,26.00
2018-09-29T09:35:55.941Z,26.10
2018-09-29T09:38:25.221Z,26.70
2018-09-29T09:40:54.501Z,26.60
2018-09-29T09:43:23.851Z,25.00
2018-09-29T09:45:53.202Z,24.40
2018-09-29T09:48:22.477Z,24.60
2018-09-29T09:50:51.822Z,24.20
2018-09-29T09:53:21.094Z,23.50
2018-09-29T09:55:50.684Z,24.80
2018-09-29T09:58:19.965Z,26.30
2018-09-29T10:00:54.605Z,26.80
2018-09-29T10:03:27.254Z,25.80
2018-09-29T10:05:56.627Z,25.20
2018-09-29T10:08:25.931Z,25.40
2018-09-29T10:10:56.472Z,25.70
2018-09-29T10:13:25.804Z,26.30
2018-09-29T10:15:55.174Z,25.50
2018-09-29T10:18:24.445Z,26.20
2018-09-29T10:20:53.783Z,25.80
2018-09-29T10:23:23.085Z,26.00
2018-09-29T10:25:52.561Z,23.90
2018-09-29T10:28:21.848Z,22.40
2018-09-29T10:30:51.249Z,23.80
2018-09-29T10:33:20.573Z,24.70
2018-09-29T10:35:49.899Z,26.00
2018-09-29T10:38:19.229Z,25.20
2018-09-29T10:40:48.557Z,23.90
2018-09-29T10:43:17.877Z,26.00
2018-09-29T10:45:47.196Z,27.00
2018-09-29T10:48:16.460Z,27.80
2018-09-29T10:50:45.790Z,27.40
2018-09-29T10:53:15.063Z,27.60
2018-09-29T10:55:44.422Z,27.00
2018-09-29T10:58:13.721Z,27.30
2018-09-29T11:00:43.089Z,27.00
2018-09-29T11:03:12.356Z,24.30
2018-09-29T11:05:41.710Z,25.10
2018-09-29T11:08:10.952Z,26.20
2018-09-29T11:10:40.282Z,26.20
2018-09-29T11:13:09.582Z,25.10
2018-09-29T11:15:38.889Z,24.20
2018-09-29T11:18:08.155Z,24.10
2018-09-29T11:20:37.454Z,25.30
2018-09-29T11:23:06.770Z,26.00
2018-09-29T11:25:36.087Z,25.50
2018-09-29T11:28:05.429Z,25.90
2018-09-29T11:30:34.713Z,26.40
2018-09-29T11:33:04.039Z,26.90
2018-09-29T11:35:33.339Z,27.10
2018-09-29T11:38:02.609Z,25.80
2018-09-29T11:40:31.941Z,25.10
2018-09-29T11:43:01.216Z,23.90
2018-09-29T11:45:30.521Z,24.50
2018-09-29T11:47:59.818Z,23.90
2018-09-29T11:50:29.127Z,25.30
2018-09-29T11:52:58.637Z,25.30
2018-09-29T11:55:27.922Z,25.40
2018-09-29T11:57:57.228Z,26.20
2018-09-29T12:00:26.513Z,26.60
2018-09-29T12:02:55.809Z,26.80
2018-09-29T12:05:25.097Z,24.90
2018-09-29T12:07:54.456Z,25.20
2018-09-29T12:10:23.751Z,25.80
2018-09-29T12:12:53.062Z,23.60
2018-09-29T12:15:22.369Z,22.50
2018-09-29T12:17:51.725Z,22.60
2018-09-29T12:20:21.021Z,22.40
2018-09-29T12:22:50.305Z,23.80
2018-09-29T12:25:19.639Z,24.20
2018-09-29T12:27:48.904Z,23.30
2018-09-29T12:30:18.213Z,22.80
2018-09-29T12:32:47.491Z,22.00
2018-09-29T12:35:16.804Z,21.10
2018-09-29T12:37:46.157Z,21.30
2018-09-29T12:40:15.398Z,21.60
2018-09-29T12:42:44.709Z,22.60
2018-09-29T12:45:13.995Z,22.50
2018-09-29T12:47:43.360Z,22.60
2018-09-29T12:50:12.670Z,21.70
2018-09-29T12:52:41.920Z,21.70
2018-09-29T12:55:11.207Z,21.10
2018-09-29T12:57:40.498Z,20.90
2018-09-29T13:00:09.785Z,21.30
2018-09-29T13:02:39.078Z,22.30
2018-09-29T13:05:08.439Z,22.80
2018-09-29T13:07:37.737Z,22.50
2018-09-29T13:10:07.017Z,21.70
2018-09-29T13:12:36.321Z,21.50
2018-09-29T13:15:05.846Z,21.10
2018-09-29T13:17:35.132Z,20.70
2018-09-29T13:20:04.553Z,20.30
2018-09-29T13:22:33.883Z,19.10
2018-09-29T13:25:03.206Z,18.80
2018-09-29T13:27:32.537Z,18.60
2018-09-29T13:30:01.796Z,18.50
2018-09-29T13:32:31.121Z,18.30
2018-09-29T13:35:00.402Z,18.20
2018-09-29T13:37:29.711Z,17.70
2018-09-29T13:39:59.026Z,17.80
2018-09-29T13:42:28.321Z,17.90
2018-09-29T13:44:57.579Z,17.60
2018-09-29T13:47:26.907Z,17.40
2018-09-29T13:49:56.181Z,17.00
2018-09-29T13:52:25.461Z,17.20
2018-09-29T13:54:54.730Z,16.90
2018-09-29T13:57:24.013Z,16.90
2018-09-29T13:59:53.310Z,17.10
2018-09-29T14:02:22.638Z,17.10
2018-09-29T14:04:51.945Z,17.10
2018-09-29T14:07:21.365Z,16.80
2018-09-29T14:09:50.695Z,17.00
2018-09-29T14:12:20.032Z,17.00
2018-09-29T14:14:49.332Z,16.90
2018-09-29T14:17:18.666Z,16.80
2018-09-29T14:19:48.015Z,16.90
2018-09-29T14:22:17.334Z,16.90
2018-09-29T14:24:46.628Z,16.60
2018-09-29T14:27:15.949Z,16.50
2018-09-29T14:29:45.236Z,16.20
2018-09-29T14:32:14.606Z,16.20
2018-09-29T14:34:43.905Z,16.20
2018-09-29T14:37:13.226Z,16.10
2018-09-29T14:39:42.518Z,16.10
2018-09-29T14:42:11.854Z,15.90
2018-09-29T14:44:41.182Z,16.00
2018-09-29T14:47:10.509Z,16.20
2018-09-29T14:49:39.778Z,16.20
2018-09-29T14:52:09.077Z,16.30
2018-09-29T14:54:38.366Z,16.30
2018-09-29T14:57:07.632Z,16.20
2018-09-29T14:59:36.964Z,16.00
2018-09-29T15:02:06.233Z,16.00
2018-09-29T15:04:35.665Z,16.00
2018-09-29T15:07:04.941Z,16.00
2018-09-29T15:09:34.239Z,16.00
2018-09-29T15:12:03.505Z,15.90
2018-09-29T15:14:32.861Z,15.70
2018-09-29T15:17:02.114Z,15.60
2018-09-29T15:19:31.467Z,15.50
2018-09-29T15:22:00.798Z,15.60
2018-09-29T15:24:30.102Z,15.50
2018-09-29T15:26:59.521Z,15.50
2018-09-29T15:29:28.828Z,15.60
2018-09-29T15:31:58.120Z,15.60
2018-09-29T15:34:27.392Z,15.40
2018-09-29T15:36:56.738Z,15.40
2018-09-29T15:39:25.975Z,15.30
2018-09-29T15:41:55.273Z,15.30
2018-09-29T15:44:24.557Z,15.30
2018-09-29T15:46:53.983Z,15.20
2018-09-29T15:49:23.329Z,15.10
2018-09-29T15:51:52.720Z,15.10
2018-09-29T15:54:22.129Z,15.00
2018-09-29T15:56:51.450Z,15.10
2018-09-29T15:59:20.771Z,15.10
2018-09-29T16:01:50.101Z,15.00
2018-09-29T16:04:19.494Z,14.90
2018-09-29T16:06:48.829Z,14.80
2018-09-29T16:09:18.139Z,14.80
2018-09-29T16:11:47.506Z,14.80
2018-09-29T16:14:16.823Z,14.80
2018-09-29T16:16:46.318Z,14.70
2018-09-29T16:19:15.645Z,14.60
2018-09-29T16:21:45.182Z,14.60
2018-09-29T16:24:14.566Z,14.50
2018-09-29T16:26:43.886Z,14.50
2018-09-29T16:29:13.212Z,14.50
2018-09-29T16:31:42.528Z,14.30
2018-09-29T16:34:11.780Z,14.30
2018-09-29T16:36:41.098Z,14.20
2018-09-29T16:39:12.250Z,14.20
2018-09-29T16:41:41.890Z,14.10
2018-09-29T16:44:11.146Z,14.10
2018-09-29T16:46:40.446Z,14.00
2018-09-29T16:49:09.702Z,13.90
2018-09-29T16:51:39.021Z,13.90
2018-09-29T16:54:08.309Z,13.90
2018-09-29T16:56:37.590Z,13.80
2018-09-29T16:59:06.855Z,13.70
2018-09-29T17:01:36.203Z,13.60
2018-09-29T17:04:05.524Z,13.50
2018-09-29T17:06:34.842Z,13.40
2018-09-29T17:09:05.653Z,13.40
2018-09-29T17:11:34.954Z,13.30
2018-09-29T17:14:04.218Z,13.30
2018-09-29T17:16:33.570Z,13.30
2018-09-29T17:19:02.814Z,13.20
2018-09-29T17:21:32.225Z,13.20
2018-09-29T17:24:01.500Z,13.10
2018-09-29T17:26:30.922Z,13.10
2018-09-29T17:29:00.258Z,12.90
2018-09-29T17:31:29.593Z,12.90
2018-09-29T17:33:58.898Z,12.80
2018-09-29T17:36:28.667Z,12.70
2018-09-29T17:38:57.956Z,12.70
2018-09-29T17:41:27.230Z,12.70
2018-09-29T17:43:56.615Z,12.70
2018-09-29T17:46:25.949Z,12.60
2018-09-29T17:48:55.295Z,12.50
2018-09-29T17:51:24.748Z,12.50
2018-09-29T17:53:54.078Z,12.40
2018-09-29T17:56:23.339Z,12.40
2018-09-29T17:58:52.735Z,12.30
2018-09-29T18:01:22.030Z,12.30
2018-09-29T18:03:51.408Z,12.30
2018-09-29T18:06:20.765Z,12.30
2018-09-29T18:08:50.109Z,12.20
2018-09-29T18:11:19.444Z,12.20
2018-09-29T18:13:48.747Z,12.20
2018-09-29T18:16:18.093Z,12.30
2018-09-29T18:18:47.458Z,12.20
2018-09-29T18:21:16.746Z,12.10
2018-09-29T18:23:46.118Z,12.00
2018-09-29T18:26:15.415Z,12.00
2018-09-29T18:28:44.745Z,12.00
2018-09-29T18:31:14.007Z,11.80
2018-09-29T18:33:43.346Z,11.70
2018-09-29T18:36:12.817Z,11.70
2018-09-29T18:38:42.176Z,11.70
2018-09-29T18:41:11.525Z,11.70
2018-09-29T18:43:40.821Z,11.60
2018-09-29T18:46:10.171Z,11.60
2018-09-29T18:48:39.446Z,11.60
2018-09-29T18:51:08.917Z,11.50
2018-09-29T18:53:38.264Z,11.40
2018-09-29T18:56:07.582Z,11.40
2018-09-29T18:58:36.853Z,11.30
2018-09-29T19:01:06.145Z,11.30
2018-09-29T19:03:35.464Z,11.30
2018-09-29T19:06:04.986Z,11.40
2018-09-29T19:08:34.251Z,11.30
2018-09-29T19:11:03.558Z,11.20
2018-09-29T19:13:32.857Z,11.20
2018-09-29T19:16:02.184Z,11.10
2018-09-29T19:18:31.522Z,11.10
2018-09-29T19:21:00.819Z,11.10
2018-09-29T19:23:30.089Z,11.20
2018-09-29T19:25:59.439Z,11.20
2018-09-29T19:28:28.773Z,11.20
2018-09-29T19:30:58.094Z,11.20
2018-09-29T19:33:27.353Z,11.20
2018-09-29T19:35:56.702Z,11.00
2018-09-29T19:38:25.978Z,11.00
2018-09-29T19:40:55.335Z,10.80
2018-09-29T19:43:24.599Z,10.80
2018-09-29T19:45:53.887Z,10.90
2018-09-29T19:48:23.146Z,10.80
2018-09-29T19:50:52.433Z,10.80
2018-09-29T19:53:21.701Z,10.70
2018-09-29T19:55:51.035Z,10.70
2018-09-29T19:58:20.287Z,10.60
2018-09-29T20:00:49.604Z,10.50
2018-09-29T20:03:18.989Z,10.50
2018-09-29T20:05:48.492Z,10.40
2018-09-29T20:08:17.762Z,10.50
2018-09-29T20:10:47.155Z,10.40
2018-09-29T20:13:16.471Z,10.30
2018-09-29T20:15:45.781Z,10.30
2018-09-29T20:18:15.039Z,10.30
2018-09-29T20:20:44.418Z,10.30
2018-09-29T20:23:13.694Z,10.10
2018-09-29T20:25:42.986Z,10.10
2018-09-29T20:28:12.301Z,10.00
2018-09-29T20:30:41.610Z,10.00
2018-09-29T20:33:10.930Z,10.00
2018-09-29T20:35:40.236Z,9.90
2018-09-29T20:38:09.558Z,9.80
2018-09-29T20:40:38.876Z,9.80
2018-09-29T20:43:08.198Z,9.80
2018-09-29T20:45:37.493Z,9.80
2018-09-29T20:48:06.839Z,9.80
2018-09-29T20:50:36.119Z,9.80
2018-09-29T20:53:05.410Z,9.80
2018-09-29T20:55:34.668Z,9.70
2018-09-29T20:58:03.962Z,9.70
2018-09-29T21:00:33.292Z,9.70
2018-09-29T21:03:02.606Z,9.70
2018-09-29T21:05:31.906Z,9.80
2018-09-29T21:08:01.183Z,9.80
2018-09-29T21:10:30.457Z,9.70
2018-09-29T21:12:59.836Z,9.60
2018-09-29T21:15:29.067Z,9.60
2018-09-29T21:17:58.357Z,9.50
2018-09-29T21:20:27.686Z,9.50
2018-09-29T21:22:56.997Z,9.20
2018-09-29T21:25:26.318Z,9.10
2018-09-29T21:27:55.647Z,9.10
2018-09-29T21:30:24.959Z,9.10
2018-09-29T21:32:54.253Z,9.00
2018-09-29T21:35:23.590Z,9.00
2018-09-29T21:37:52.842Z,9.10
2018-09-29T21:40:22.171Z,9.00
2018-09-29T21:42:51.501Z,8.90
2018-09-29T21:45:20.857Z,8.80
2018-09-29T21:47:50.182Z,8.80
2018-09-29T21:50:19.569Z,8.90
2018-09-29T21:52:48.875Z,8.90
2018-09-29T21:55:18.163Z,8.90
2018-09-29T21:57:47.444Z,8.80
2018-09-29T22:00:20.900Z,8.60
2018-09-29T22:02:50.231Z,8.50
2018-09-29T22:05:19.584Z,8.50
2018-09-29T22:07:48.989Z,8.40
2018-09-29T22:10:18.325Z,8.50
2018-09-29T22:12:47.604Z,8.60
2018-09-29T22:15:16.925Z,8.50
2018-09-29T22:17:46.225Z,8.60
2018-09-29T22:20:15.560Z,8.50
2018-09-29T22:22:44.860Z,8.60
2018-09-29T22:25:14.239Z,8.50
2018-09-29T22:27:43.698Z,8.30
2018-09-29T22:30:13.086Z,8.30
2018-09-29T22:32:42.423Z,8.20
2018-09-29T22:35:11.763Z,8.00
2018-09-29T22:37:41.049Z,8.00
2018-09-29T22:40:10.355Z,7.70
2018-09-29T22:42:39.738Z,7.70
2018-09-29T22:45:09.098Z,7.60
2018-09-29T22:47:38.393Z,7.60
2018-09-29T22:50:07.689Z,7.70
2018-09-29T22:52:36.990Z,7.70
2018-09-29T22:55:06.304Z,7.80
2018-09-29T22:57:35.701Z,7.70
2018-09-29T23:00:04.967Z,7.70
2018-09-29T23:02:34.296Z,7.70
2018-09-29T23:05:03.623Z,7.80
2018-09-29T23:07:33.054Z,7.70
2018-09-29T23:10:02.345Z,7.70
2018-09-29T23:12:31.687Z,7.80
2018-09-29T23:15:00.983Z,7.80
2018-09-29T23:17:32.248Z,7.70
2018-09-29T23:20:03.115Z,7.60
2018-09-29T23:22:33.981Z,7.60
2018-09-29T23:25:04.791Z,7.50
2018-09-29T23:27:34.213Z,7.60
2018-09-29T23:30:03.537Z,7.60
2018-09-29T23:32:32.847Z,7.70
2018-09-29T23:35:02.210Z,7.60
2018-09-29T23:37:31.507Z,7.30
2018-09-29T23:40:00.880Z,7.10
2018-09-29T23:42:30.246Z,6.80
2018-09-29T23:44:59.496Z,6.60
2018-09-29T23:47:28.811Z,6.50
2018-09-29T23:49:58.084Z,6.40
2018-09-29T23:52:27.397Z,6.50
2018-09-29T23:54:56.648Z,6.40
2018-09-29T23:57:25.982Z,6.30
2018-09-29T23:59:55.222Z,6.50
